Terminal Aerodrome Forecast
Issued by NWS Paducah, KY

Home | Current Version | Previous Version | Text Only | Print | Product List | Glossary On
Versions: 1 2 3 4 5 6 7 8 9 10 11 12 13 14 15 16 17 18 19 20 21
000
FTUS43 KPAH 271100
TAFEVV
TAF
KEVV 271121Z 2712/2812 00000KT 4SM BR BKN004 OVC025
     FM271400 34002KT 6SM BR OVC009
     FM271600 36006KT P6SM OVC014
     FM272000 36005KT P6SM BKN025
     FM280600 VRB02KT P6SM SCT030=

USA.gov is the U.S. government's official web portal to all federal, state and local government web resources and services.